createdAt,value
2023-02-24T00:01:59.932Z,11.83
2023-02-24T00:04:51.542Z,11.57
2023-02-24T00:07:37.994Z,12.70
2023-02-24T00:10:24.397Z,13.30
2023-02-24T00:13:11.987Z,10.47
2023-02-24T00:16:02.490Z,12.13
2023-02-24T00:18:49.320Z,11.50
2023-02-24T00:21:35.842Z,11.60
2023-02-24T00:24:23.148Z,12.43
2023-02-24T00:27:12.038Z,10.97
2023-02-24T00:29:58.860Z,12.37
2023-02-24T00:32:45.164Z,13.27
2023-02-24T00:35:32.198Z,13.50
2023-02-24T00:38:18.694Z,12.13
2023-02-24T00:41:14.318Z,12.50
2023-02-24T00:44:08.712Z,11.83
2023-02-24T00:46:55.023Z,11.13
2023-02-24T00:49:44.981Z,11.87
2023-02-24T00:52:31.428Z,12.87
2023-02-24T00:55:19.181Z,13.17
2023-02-24T00:58:07.303Z,11.63
2023-02-24T01:00:55.607Z,11.77
2023-02-24T01:03:42.358Z,12.30
2023-02-24T01:06:29.305Z,11.50
2023-02-24T01:09:21.092Z,10.87
2023-02-24T01:12:38.289Z,11.97
2023-02-24T01:15:24.986Z,10.67
2023-02-24T01:18:11.502Z,11.83
2023-02-24T01:21:01.068Z,11.10
2023-02-24T01:23:48.861Z,11.03
2023-02-24T01:26:35.106Z,11.83
2023-02-24T01:29:22.924Z,11.27
2023-02-24T01:32:17.084Z,11.03
2023-02-24T01:35:04.052Z,12.80
2023-02-24T01:37:50.316Z,13.03
2023-02-24T01:40:36.795Z,12.73
2023-02-24T01:43:23.062Z,14.63
2023-02-24T01:46:10.877Z,13.07
2023-02-24T01:49:08.276Z,11.57
2023-02-24T01:52:04.522Z,11.67
2023-02-24T01:55:01.599Z,12.90
2023-02-24T01:57:50.347Z,13.63
2023-02-24T02:00:45.061Z,16.10
2023-02-24T02:03:35.172Z,13.77
2023-02-24T02:06:24.643Z,13.57
2023-02-24T02:09:11.753Z,13.50
2023-02-24T02:11:58.307Z,14.03
2023-02-24T02:14:52.201Z,15.13
2023-02-24T02:17:43.550Z,15.70
2023-02-24T02:21:08.808Z,13.63
2023-02-24T02:24:01.302Z,13.00
2023-02-24T02:27:22.595Z,16.40
2023-02-24T02:30:56.163Z,14.63
2023-02-24T02:34:06.972Z,14.07
2023-02-24T02:37:12.236Z,14.20
2023-02-24T02:40:19.528Z,14.63
2023-02-24T02:43:32.441Z,14.40
2023-02-24T02:46:34.917Z,14.37
2023-02-24T02:49:36.339Z,15.97
2023-02-24T02:52:39.250Z,14.67
2023-02-24T02:55:53.412Z,13.37
2023-02-24T02:58:46.141Z,13.40
2023-02-24T03:01:37.322Z,15.17
2023-02-24T03:04:25.286Z,16.33
2023-02-24T03:07:17.685Z,16.30
2023-02-24T03:10:11.317Z,15.83
2023-02-24T03:13:01.992Z,17.33
2023-02-24T03:15:51.827Z,16.97
2023-02-24T03:18:44.773Z,16.17
2023-02-24T03:21:36.805Z,16.10
2023-02-24T03:24:24.325Z,15.73
2023-02-24T03:27:41.132Z,14.63
2023-02-24T03:30:40.645Z,14.07
2023-02-24T03:33:38.520Z,14.57
2023-02-24T03:36:25.114Z,13.73
2023-02-24T03:39:12.292Z,14.00
2023-02-24T03:42:16.923Z,15.17
2023-02-24T03:45:06.279Z,16.23
2023-02-24T03:47:56.004Z,15.73
2023-02-24T03:50:43.763Z,16.90
2023-02-24T03:53:58.424Z,15.53
2023-02-24T03:57:01.832Z,14.90
2023-02-24T04:00:22.801Z,14.07
2023-02-24T04:03:39.348Z,15.33
2023-02-24T04:06:57.898Z,17.40
2023-02-24T04:09:50.187Z,15.07
2023-02-24T04:12:47.898Z,13.70
2023-02-24T04:15:43.640Z,14.33
2023-02-24T04:18:32.627Z,15.70
2023-02-24T04:21:22.807Z,16.17
2023-02-24T04:24:15.788Z,15.93
2023-02-24T04:27:06.607Z,14.60
2023-02-24T04:30:01.420Z,17.47
2023-02-24T04:32:49.538Z,17.27
2023-02-24T04:35:37.789Z,14.63
2023-02-24T04:38:24.699Z,16.40
2023-02-24T04:41:11.776Z,18.13
2023-02-24T04:43:57.933Z,15.17
2023-02-24T04:46:45.902Z,15.67
2023-02-24T04:49:32.229Z,16.50
2023-02-24T04:52:20.665Z,16.07
2023-02-24T04:55:10.250Z,16.33
2023-02-24T04:57:57.720Z,16.97
2023-02-24T05:00:44.184Z,14.67
2023-02-24T05:03:30.445Z,15.83
2023-02-24T05:06:18.229Z,14.73
2023-02-24T05:09:14.101Z,14.53
2023-02-24T05:12:00.587Z,12.87
2023-02-24T05:14:49.327Z,15.90
2023-02-24T05:17:36.303Z,16.33
2023-02-24T05:20:41.052Z,15.17
2023-02-24T05:23:31.752Z,15.37
2023-02-24T05:26:20.407Z,14.80
2023-02-24T05:29:07.501Z,14.80
2023-02-24T05:31:55.293Z,15.17
2023-02-24T05:34:42.714Z,17.97
2023-02-24T05:37:29.258Z,13.43
2023-02-24T05:40:15.919Z,15.03
2023-02-24T05:43:04.760Z,16.47
2023-02-24T05:45:51.323Z,14.30
2023-02-24T05:48:37.875Z,15.70
2023-02-24T05:51:25.566Z,15.47
2023-02-24T05:54:13.718Z,14.73
2023-02-24T05:57:09.173Z,15.40
2023-02-24T05:59:55.888Z,15.87
2023-02-24T06:02:49.536Z,15.87
2023-02-24T06:05:39.612Z,14.67
2023-02-24T06:08:26.214Z,15.17
2023-02-24T06:11:13.070Z,16.87
2023-02-24T06:13:59.503Z,14.67
2023-02-24T06:16:45.779Z,14.80
2023-02-24T06:19:32.403Z,15.10
2023-02-24T06:22:20.471Z,16.20
2023-02-24T06:25:07.524Z,15.97
2023-02-24T06:27:55.676Z,17.03
2023-02-24T06:30:42.289Z,15.87
2023-02-24T06:33:28.533Z,15.93
2023-02-24T06:36:15.489Z,13.37
2023-02-24T06:39:01.627Z,15.17
2023-02-24T06:41:51.568Z,15.50
2023-02-24T06:44:39.880Z,17.40
2023-02-24T06:47:26.935Z,14.33
2023-02-24T06:50:13.236Z,15.00
2023-02-24T06:53:00.830Z,14.83
2023-02-24T06:55:48.902Z,13.57
2023-02-24T06:58:35.376Z,14.43
2023-02-24T07:01:25.691Z,16.53
2023-02-24T07:04:12.484Z,16.20
2023-02-24T07:07:03.220Z,14.83
2023-02-24T07:09:49.941Z,14.80
2023-02-24T07:12:35.945Z,14.20
2023-02-24T07:15:22.484Z,14.00
2023-02-24T07:18:14.716Z,14.30
2023-02-24T07:21:05.065Z,14.27
2023-02-24T07:23:58.847Z,16.33
2023-02-24T07:26:51.690Z,13.80
2023-02-24T07:29:38.828Z,15.20
2023-02-24T07:32:25.818Z,15.93
2023-02-24T07:35:12.303Z,15.97
2023-02-24T07:38:02.046Z,13.77
2023-02-24T07:40:49.879Z,15.07
2023-02-24T07:43:40.383Z,14.40
2023-02-24T07:46:27.993Z,14.77
2023-02-24T07:49:19.604Z,13.73
2023-02-24T07:52:08.068Z,14.73
2023-02-24T07:54:55.082Z,15.70
2023-02-24T07:57:46.555Z,15.53
2023-02-24T08:00:49.945Z,15.27
2023-02-24T08:03:41.218Z,18.03
2023-02-24T08:06:45.490Z,15.37
2023-02-24T08:09:46.708Z,16.90
2023-02-24T08:12:35.074Z,15.43
2023-02-24T08:15:26.728Z,13.63
2023-02-24T08:18:13.746Z,34.90
2023-02-24T08:21:04.688Z,20.20
2023-02-24T08:23:52.960Z,20.57
2023-02-24T08:26:44.768Z,16.03
2023-02-24T08:29:55.135Z,19.67
2023-02-24T08:32:46.843Z,16.80
2023-02-24T08:35:35.891Z,15.00
2023-02-24T08:38:25.957Z,15.70
2023-02-24T08:41:20.952Z,16.50
2023-02-24T08:44:10.226Z,16.40
2023-02-24T08:46:56.782Z,14.30
2023-02-24T08:49:43.894Z,15.43
2023-02-24T08:52:32.430Z,14.80
2023-02-24T08:55:23.075Z,15.07
2023-02-24T08:58:15.316Z,13.47
2023-02-24T09:01:03.756Z,15.07
2023-02-24T09:03:57.080Z,13.80
2023-02-24T09:06:49.762Z,15.43
2023-02-24T09:09:42.056Z,14.43
2023-02-24T09:12:30.008Z,14.87
2023-02-24T09:15:16.782Z,16.87
2023-02-24T09:18:14.239Z,13.90
2023-02-24T09:21:26.709Z,17.23
2023-02-24T09:24:15.964Z,14.73
2023-02-24T09:27:04.337Z,16.67
2023-02-24T09:29:50.582Z,15.50
2023-02-24T09:32:37.044Z,14.27
2023-02-24T09:35:30.962Z,14.60
2023-02-24T09:38:36.761Z,15.63
2023-02-24T09:41:56.309Z,14.57
2023-02-24T09:44:45.834Z,14.40
2023-02-24T09:47:51.198Z,16.00
2023-02-24T09:51:02.818Z,19.47
2023-02-24T09:53:54.041Z,14.80
2023-02-24T09:57:08.779Z,15.10
2023-02-24T10:00:22.505Z,13.47
2023-02-24T10:03:47.904Z,13.33
2023-02-24T10:06:46.505Z,15.10
2023-02-24T10:10:19.312Z,14.63
2023-02-24T10:13:32.539Z,13.90
2023-02-24T10:16:23.963Z,15.20
2023-02-24T10:19:23.600Z,14.40
2023-02-24T10:22:53.162Z,16.37
2023-02-24T10:25:53.937Z,15.80
2023-02-24T10:29:18.952Z,14.70
2023-02-24T10:32:23.422Z,15.10
2023-02-24T10:35:16.674Z,17.90
2023-02-24T10:38:06.632Z,16.20
2023-02-24T10:40:57.615Z,16.87
2023-02-24T10:43:56.132Z,14.93
2023-02-24T10:46:43.627Z,14.57
2023-02-24T10:49:30.126Z,15.33
2023-02-24T10:52:33.383Z,17.30
2023-02-24T10:55:57.499Z,17.47
2023-02-24T10:58:53.171Z,18.27
2023-02-24T11:01:58.973Z,17.30
2023-02-24T11:05:04.183Z,16.70
2023-02-24T11:07:54.009Z,16.07
2023-02-24T11:10:58.569Z,19.27
2023-02-24T11:14:07.891Z,16.23
2023-02-24T11:17:13.572Z,16.53
2023-02-24T11:20:13.214Z,18.07
2023-02-24T11:23:03.408Z,15.43
2023-02-24T11:25:53.624Z,16.70
2023-02-24T11:28:55.863Z,15.77
2023-02-24T11:32:16.876Z,15.40
2023-02-24T11:35:18.551Z,16.67
2023-02-24T11:38:12.131Z,15.70
2023-02-24T11:41:27.163Z,14.90
2023-02-24T11:44:30.187Z,15.77
2023-02-24T11:47:22.069Z,16.97
2023-02-24T11:50:26.561Z,15.20
2023-02-24T11:53:32.630Z,14.07
2023-02-24T11:56:22.243Z,15.87
2023-02-24T11:59:20.329Z,17.50
2023-02-24T12:02:16.413Z,15.43
2023-02-24T12:05:18.778Z,17.43
2023-02-24T12:08:29.216Z,19.13
2023-02-24T12:11:32.903Z,15.73
2023-02-24T12:14:38.193Z,15.17
2023-02-24T12:17:38.887Z,15.40
2023-02-24T12:20:36.189Z,15.17
2023-02-24T12:23:43.745Z,14.40
2023-02-24T12:26:42.639Z,12.70
2023-02-24T12:29:42.442Z,14.53
2023-02-24T12:32:54.323Z,17.13
2023-02-24T12:35:47.366Z,13.53
2023-02-24T12:38:53.558Z,13.07
2023-02-24T12:42:10.358Z,13.10
2023-02-24T12:45:12.802Z,12.77
2023-02-24T12:48:20.733Z,11.93
2023-02-24T12:51:21.878Z,11.67
2023-02-24T12:54:28.420Z,12.07
2023-02-24T12:57:39.207Z,12.93
2023-02-24T13:00:37.991Z,11.10
2023-02-24T13:03:33.268Z,10.73
2023-02-24T13:06:37.828Z,11.33
2023-02-24T13:09:36.061Z,10.37
2023-02-24T13:12:47.397Z,10.97
2023-02-24T13:15:33.755Z,10.90
2023-02-24T13:18:29.024Z,10.53
2023-02-24T13:21:15.136Z,11.93
2023-02-24T13:24:02.887Z,10.03
2023-02-24T13:26:49.284Z,13.17
2023-02-24T13:30:11.109Z,13.17
2023-02-24T13:33:04.918Z,11.23
2023-02-24T13:36:05.609Z,12.83
2023-02-24T13:38:55.002Z,11.50
2023-02-24T13:41:41.385Z,11.20
2023-02-24T13:44:28.839Z,9.87
2023-02-24T13:47:15.396Z,10.00
2023-02-24T13:50:20.919Z,10.90
2023-02-24T13:53:34.089Z,10.57
2023-02-24T13:56:28.465Z,9.47
2023-02-24T13:59:38.574Z,9.10
2023-02-24T14:02:30.934Z,9.97
2023-02-24T14:05:26.059Z,11.37
2023-02-24T14:08:22.187Z,9.80
2023-02-24T14:11:14.829Z,8.70
2023-02-24T14:14:01.784Z,9.80
2023-02-24T14:16:50.711Z,9.20
2023-02-24T14:19:36.843Z,10.57
2023-02-24T14:22:23.567Z,10.17
2023-02-24T14:25:11.272Z,10.93
2023-02-24T14:27:58.222Z,9.57
2023-02-24T14:30:45.282Z,9.17
2023-02-24T14:33:37.420Z,10.37
2023-02-24T14:36:27.422Z,9.80
2023-02-24T14:39:18.440Z,10.27
2023-02-24T14:42:13.006Z,9.70
2023-02-24T14:44:59.760Z,10.10
2023-02-24T14:47:46.461Z,8.90
2023-02-24T14:50:34.496Z,8.50
2023-02-24T14:53:22.872Z,10.10
2023-02-24T14:56:12.107Z,9.13
2023-02-24T14:59:05.694Z,7.57
2023-02-24T15:01:55.565Z,8.97
2023-02-24T15:04:44.391Z,9.20
2023-02-24T15:07:34.747Z,12.10
2023-02-24T15:10:29.705Z,10.70
2023-02-24T15:13:36.471Z,8.50
2023-02-24T15:16:45.446Z,8.63
2023-02-24T15:19:45.783Z,10.40
2023-02-24T15:22:34.739Z,10.37
2023-02-24T15:25:41.791Z,8.57
2023-02-24T15:28:31.874Z,9.03
2023-02-24T15:31:21.345Z,10.37
2023-02-24T15:34:19.864Z,9.10
2023-02-24T15:37:22.426Z,8.03
2023-02-24T15:40:22.378Z,9.57
2023-02-24T15:43:11.954Z,8.87
2023-02-24T15:45:58.643Z,7.63
2023-02-24T15:48:47.694Z,11.60
2023-02-24T15:51:40.765Z,11.60
2023-02-24T15:54:31.429Z,8.03
2023-02-24T15:57:19.322Z,7.67
2023-02-24T16:00:13.266Z,7.60
2023-02-24T16:02:59.492Z,7.67
2023-02-24T16:05:46.100Z,7.70
2023-02-24T16:08:33.565Z,7.67
2023-02-24T16:11:25.332Z,7.90
2023-02-24T16:14:15.531Z,7.80
2023-02-24T16:17:40.024Z,7.30
2023-02-24T16:20:31.365Z,6.93
2023-02-24T16:23:17.815Z,6.93
2023-02-24T16:26:04.572Z,7.43
2023-02-24T16:28:57.365Z,8.00
2023-02-24T16:31:43.953Z,6.63
2023-02-24T16:34:30.240Z,7.17
2023-02-24T16:37:20.789Z,8.33
2023-02-24T16:40:23.499Z,8.50
2023-02-24T16:43:10.438Z,8.93
2023-02-24T16:46:03.864Z,7.77
2023-02-24T16:48:53.335Z,7.93
2023-02-24T16:51:40.539Z,8.83
2023-02-24T16:54:29.104Z,8.63
2023-02-24T16:57:16.085Z,7.27
2023-02-24T17:00:05.217Z,8.17
2023-02-24T17:02:53.029Z,8.00
2023-02-24T17:05:39.651Z,7.27
2023-02-24T17:08:26.137Z,8.70
2023-02-24T17:11:15.444Z,7.83
2023-02-24T17:14:02.042Z,8.43
2023-02-24T17:16:48.920Z,8.40
2023-02-24T17:19:35.528Z,8.37
2023-02-24T17:22:22.528Z,7.73
2023-02-24T17:25:16.000Z,9.40
2023-02-24T17:28:04.016Z,9.47
2023-02-24T17:30:52.128Z,10.20
2023-02-24T17:33:38.624Z,9.73
2023-02-24T17:36:25.353Z,10.23
2023-02-24T17:39:13.014Z,9.50
2023-02-24T17:41:59.321Z,9.03
2023-02-24T17:44:45.675Z,10.17
2023-02-24T17:47:34.257Z,9.33
2023-02-24T17:50:20.656Z,8.40
2023-02-24T17:53:07.628Z,8.70
2023-02-24T17:56:05.501Z,7.60
2023-02-24T17:58:55.296Z,9.83
2023-02-24T18:01:41.510Z,9.47
2023-02-24T18:04:28.772Z,10.73
2023-02-24T18:07:15.386Z,8.30
2023-02-24T18:10:02.767Z,7.33
2023-02-24T18:12:49.134Z,9.90
2023-02-24T18:15:38.739Z,9.10
2023-02-24T18:18:27.183Z,9.10
2023-02-24T18:21:13.762Z,10.10
2023-02-24T18:24:00.281Z,7.70
2023-02-24T18:26:46.848Z,9.10
2023-02-24T18:29:33.167Z,8.87
2023-02-24T18:32:19.543Z,7.90
2023-02-24T18:35:06.485Z,10.73
2023-02-24T18:37:58.786Z,8.67
2023-02-24T18:40:45.405Z,11.43
2023-02-24T18:43:32.770Z,8.53
2023-02-24T18:46:19.609Z,8.57
2023-02-24T18:49:08.765Z,8.93
2023-02-24T18:51:55.521Z,8.83
2023-02-24T18:54:41.761Z,8.30
2023-02-24T18:57:28.050Z,12.23
2023-02-24T19:00:15.223Z,8.53
2023-02-24T19:03:01.602Z,9.03
2023-02-24T19:05:48.465Z,8.80
2023-02-24T19:08:34.800Z,8.27
2023-02-24T19:11:21.054Z,8.30
2023-02-24T19:14:09.827Z,8.37
2023-02-24T19:16:58.548Z,8.37
2023-02-24T19:19:46.619Z,7.57
2023-02-24T19:22:32.784Z,8.40
2023-02-24T19:25:19.194Z,8.73
2023-02-24T19:28:05.937Z,12.00
2023-02-24T19:30:54.086Z,9.90
2023-02-24T19:33:40.671Z,10.77
2023-02-24T19:36:30.832Z,8.97
2023-02-24T19:39:18.047Z,7.80
2023-02-24T19:42:06.481Z,7.93
2023-02-24T19:44:53.021Z,9.80
2023-02-24T19:47:42.783Z,7.63
2023-02-24T19:50:29.531Z,7.60
2023-02-24T19:53:15.698Z,9.60
2023-02-24T19:56:02.225Z,10.93
2023-02-24T19:58:52.922Z,11.30
2023-02-24T20:01:40.315Z,14.40
2023-02-24T20:04:27.024Z,12.53
2023-02-24T20:07:13.755Z,8.47
2023-02-24T20:10:00.339Z,8.50
2023-02-24T20:12:46.648Z,10.70
2023-02-24T20:15:34.348Z,9.33
2023-02-24T20:18:20.727Z,9.30
2023-02-24T20:21:07.970Z,9.13
2023-02-24T20:23:54.639Z,12.17
2023-02-24T20:26:43.539Z,11.43
2023-02-24T20:29:31.264Z,11.67
2023-02-24T20:32:17.788Z,8.60
2023-02-24T20:35:04.457Z,9.10
2023-02-24T20:37:50.678Z,8.33
2023-02-24T20:40:37.449Z,8.63
2023-02-24T20:43:24.459Z,8.43
2023-02-24T20:46:18.110Z,9.30
2023-02-24T20:49:07.168Z,7.93
2023-02-24T20:51:53.519Z,8.70
2023-02-24T20:54:40.088Z,2.67
2023-02-24T20:57:26.641Z,2.27
2023-02-24T21:00:15.458Z,2.03
2023-02-24T21:03:01.858Z,2.20
2023-02-24T21:05:48.129Z,2.10
2023-02-24T21:08:34.366Z,1.70
2023-02-24T21:11:21.425Z,1.80
2023-02-24T21:14:08.056Z,2.10
2023-02-24T21:16:54.258Z,1.80
2023-02-24T21:19:40.391Z,2.90
2023-02-24T21:22:26.525Z,2.97
2023-02-24T21:25:12.966Z,3.03
2023-02-24T21:27:59.497Z,2.40
2023-02-24T21:30:46.241Z,2.83
2023-02-24T21:33:33.032Z,2.80
2023-02-24T21:36:21.448Z,2.57
2023-02-24T21:39:14.566Z,2.47
2023-02-24T21:42:01.154Z,2.60
2023-02-24T21:44:50.947Z,2.80
2023-02-24T21:47:37.818Z,2.83
2023-02-24T21:50:24.134Z,3.70
2023-02-24T21:53:13.108Z,4.07
2023-02-24T21:56:11.224Z,3.57
2023-02-24T21:59:06.153Z,2.97
2023-02-24T22:01:54.214Z,3.17
2023-02-24T22:04:40.596Z,2.63
2023-02-24T22:07:28.278Z,2.60
2023-02-24T22:10:22.997Z,3.17
2023-02-24T22:13:09.159Z,3.93
2023-02-24T22:15:58.173Z,5.90
2023-02-24T22:18:45.302Z,5.47
2023-02-24T22:21:32.992Z,4.87
2023-02-24T22:24:19.464Z,2.40
2023-02-24T22:27:05.871Z,2.57
2023-02-24T22:29:52.448Z,3.77
2023-02-24T22:32:38.908Z,3.23
2023-02-24T22:35:25.601Z,2.57
2023-02-24T22:38:11.827Z,6.57
2023-02-24T22:41:03.433Z,4.07
2023-02-24T22:43:50.554Z,2.40
2023-02-24T22:46:38.210Z,3.73
2023-02-24T22:49:25.002Z,3.10
2023-02-24T22:52:11.663Z,2.70
2023-02-24T22:54:58.055Z,4.27
2023-02-24T22:57:44.479Z,3.63
2023-02-24T23:00:30.925Z,2.67
2023-02-24T23:03:19.917Z,2.60
2023-02-24T23:06:14.793Z,2.90
2023-02-24T23:09:02.923Z,2.50
2023-02-24T23:11:49.380Z,3.17
2023-02-24T23:14:35.981Z,2.80
2023-02-24T23:17:22.448Z,2.57
2023-02-24T23:20:12.704Z,2.63
2023-02-24T23:23:02.424Z,3.43
2023-02-24T23:25:52.404Z,2.37
2023-02-24T23:28:39.212Z,2.77
2023-02-24T23:31:26.016Z,3.00
2023-02-24T23:34:12.469Z,3.43
2023-02-24T23:36:58.694Z,2.60
2023-02-24T23:39:45.225Z,4.50
2023-02-24T23:42:31.691Z,2.90
2023-02-24T23:45:18.346Z,3.07
2023-02-24T23:48:05.096Z,2.73
2023-02-24T23:50:55.249Z,3.20
2023-02-24T23:53:44.833Z,2.80
2023-02-24T23:56:31.652Z,2.67
2023-02-24T23:59:18.094Z,2.87
